Have a Safe July 4th! 

Flight Track Log - Related Links

Times and Time Zones

All times are in EDT time to prevent confusion due to time zone crossing. See the N916P flight status page for this flight to view local times or setup timezone preferences in your user account.

Time Position Orientation Groundspeed Altitude Reporting Facility
EDT Latitude Longitude Course Direction KTS MPH feet Rate Location/Type
Sun 03:22:00 PM 35.0244 -94.4669 198° South  Level FlightAware Approximate
Sun 03:23:00 PM 34.9810 -94.4842 196° South  Level FlightAware Approximate
Sun 03:24:00 PM 34.9371 -94.4999 196° South  Level FlightAware Approximate
Sun 03:24:08 PM 35.0181 -94.4950 198° South 163 188 9,500  Level Memphis Center
Sun 03:25:00 PM 34.8932 -94.5156 196° South  Level FlightAware Approximate
Sun 03:25:08 PM 34.9781 -94.5083 195° South 158 182 10,000  Level Memphis Center
Sun 03:26:00 PM 34.8494 -94.5312 196° South  Level FlightAware Approximate
Sun 03:26:08 PM 34.9336 -94.5264 198° South 165 190 10,000  Level Memphis Center
Sun 03:27:00 PM 34.8055 -94.5469 196° South  Level FlightAware Approximate
Sun 03:27:08 PM 34.8808 -94.5414 193° South 178 205 10,100  Level Memphis Center
Sun 03:28:00 PM 34.7616 -94.5625 196° South  Level FlightAware Approximate
Sun 03:28:08 PM 34.8367 -94.5569 196° South 183 211 10,100  Level Memphis Center
Sun 03:29:00 PM 34.7181 -94.5794 198° South  Level FlightAware Approximate
Sun 03:29:08 PM 34.7817 -94.5797 199° South 196 226 10,100  Level Memphis Center
Sun 03:30:08 PM 34.7308 -94.5972 196° South 196 226 10,000 -75 Descending Memphis Center
Sun 03:30:28 PM 34.7197 -94.5992 188° South 195 224 10,000 75 Level Fort Worth Center
Sun 03:31:28 PM 34.6700 -94.6161 196° South 166 191 10,100  Climbing Fort Worth Center
Sun 03:32:28 PM 34.6203 -94.6328 195° South 171 197 10,000  Descending Fort Worth Center
Sun 03:33:28 PM 34.5747 -94.6469 194° South 183 211 10,100 50 Climbing Fort Worth Center
Sun 03:34:28 PM 34.5250 -94.6636 195° South 190 219 10,100  Level Fort Worth Center
Sun 03:35:28 PM 34.4733 -94.6828 197° South 190 219 10,100  Level Fort Worth Center
Sun 03:36:28 PM 34.4258 -94.6994 196° South 185 213 10,100  Level Fort Worth Center
Sun 03:37:27 PM 34.3739 -94.7164 195° South 185 213 10,100  Level Fort Worth Center
Sun 03:38:27 PM 34.3242 -94.7353 197° South 185 213 10,100  Level Fort Worth Center
Sun 03:39:28 PM 34.2744 -94.7519 195° South 185 213 10,100  Level Fort Worth Center
Sun 03:41:27 PM 34.1711 -94.7903 197° South 185 213 10,100  Level Fort Worth Center
Sun 03:42:28 PM 34.1253 -94.8042 194° South 185 213 10,100 50 Level Fort Worth Center
Sun 03:43:27 PM 34.0758 -94.8233 198° South 185 213 10,200  Climbing Fort Worth Center
Sun 03:44:28 PM 34.0281 -94.8397 196° South 185 213 10,100  Descending Fort Worth Center
Sun 03:45:28 PM 33.9783 -94.8536 193° South 185 213 10,200  Climbing Fort Worth Center
Sun 03:46:28 PM 33.9286 -94.8703 196° South 185 213 10,100 -50 Descending Fort Worth Center
Sun 03:47:28 PM 33.8767 -94.8892 197° South 185 213 10,100  Level Fort Worth Center
Sun 03:48:28 PM 33.8292 -94.9056 196° South 185 213 10,100  Level Fort Worth Center
Sun 03:49:27 PM 33.7792 -94.9219 195° South 185 213 10,100  Level Fort Worth Center
Sun 03:50:28 PM 33.7317 -94.9383 196° South 185 213 10,100  Level Fort Worth Center
Sun 03:51:28 PM 33.6797 -94.9547 195° South 185 213 10,100  Level Fort Worth Center
Sun 03:52:28 PM 33.6300 -94.9711 195° South 185 213 10,100  Level Fort Worth Center
Sun 03:53:27 PM 33.5803 -94.9875 195° South 185 213 10,100  Level Fort Worth Center
Sun 03:54:28 PM 33.5325 -95.0061 198° South 185 213 10,100  Level Fort Worth Center
Sun 03:55:28 PM 33.4828 -95.0225 195° South 185 213 10,100  Level Fort Worth Center
Sun 03:56:28 PM 33.4331 -95.0389 195° South 185 213 10,100  Level Fort Worth Center
Sun 03:57:28 PM 33.3811 -95.0578 197° South 185 213 10,100  Level Fort Worth Center
Sun 03:58:28 PM 33.3336 -95.0739 196° South 185 213 10,100 -50 Level Fort Worth Center
Sun 03:59:28 PM 33.2817 -95.0900 195° South 185 213 10,000 -300 Descending Fort Worth Center
Sun 04:00:28 PM 33.2278 -95.1064 194° South 185 213 9,500 -450 Descending Fort Worth Center
Sun 04:01:28 PM 33.1739 -95.1278 198° South 191 220 9,100 -450 Descending Fort Worth Center
Sun 04:02:28 PM 33.1178 -95.1439 194° South 204 235 8,600 -550 Descending Fort Worth Center
Sun 04:03:28 PM 33.0617 -95.1628 196° South 204 235 8,000 -550 Descending Fort Worth Center
Sun 04:04:28 PM 33.0097 -95.1814 197° South 204 235 7,500 -500 Descending Fort Worth Center
Sun 04:05:28 PM 32.9581 -95.1975 195° South 199 229 7,000 -500 Descending Fort Worth Center
Sun 04:06:28 PM 32.9061 -95.2161 197° South 199 229 6,500 -500 Descending Fort Worth Center
Sun 04:07:28 PM 32.8542 -95.2322 195° South 199 229 6,000 -504 Descending Fort Worth Center
Sun 04:08:27 PM 32.8086 -95.2508 199° South 194 223 5,500 -500 Descending Fort Worth Center
Sun 04:09:28 PM 32.7586 -95.2667 195° South 194 223 5,000 -496 Descending Fort Worth Center
Sun 04:10:28 PM 32.7108 -95.2803 193° South 187 215 4,500 -450 Descending Fort Worth Center
Sun 04:11:28 PM 32.6633 -95.2986 198° South 180 207 4,100 -250 Descending Fort Worth Center
Sun 04:12:28 PM 32.6050 -95.3172 195° South 180 207 4,000 -100 Descending Fort Worth Center

Login

Don't have an account? Register now (free) for customized features, flight alerts, and more!